createdAt,value
2022-11-24T00:01:18.521Z,1.70
2022-11-24T00:03:52.152Z,1.90
2022-11-24T00:06:19.320Z,1.73
2022-11-24T00:08:46.959Z,1.73
2022-11-24T00:11:16.948Z,2.00
2022-11-24T00:13:44.929Z,1.95
2022-11-24T00:16:16.689Z,1.80
2022-11-24T00:18:46.344Z,2.13
2022-11-24T00:21:15.484Z,1.80
2022-11-24T00:23:44.203Z,1.80
2022-11-24T00:26:22.758Z,2.30
2022-11-24T00:28:51.861Z,1.90
2022-11-24T00:31:28.888Z,1.45
2022-11-24T00:33:58.719Z,1.77
2022-11-24T00:36:29.324Z,1.75
2022-11-24T00:38:58.623Z,1.65
2022-11-24T00:41:27.411Z,1.50
2022-11-24T00:43:56.916Z,1.75
2022-11-24T00:46:27.002Z,1.52
2022-11-24T00:48:54.764Z,1.60
2022-11-24T00:51:27.929Z,1.38
2022-11-24T00:53:56.483Z,1.80
2022-11-24T00:56:24.709Z,1.80
2022-11-24T00:58:52.594Z,1.60
2022-11-24T01:01:23.163Z,1.42
2022-11-24T01:03:55.095Z,1.63
2022-11-24T01:06:27.981Z,1.50
2022-11-24T01:08:56.967Z,1.63
2022-11-24T01:11:50.962Z,1.52
2022-11-24T01:14:18.703Z,1.50
2022-11-24T01:16:46.122Z,1.30
2022-11-24T01:19:13.531Z,1.67
2022-11-24T01:21:40.820Z,1.55
2022-11-24T01:24:07.982Z,1.13
2022-11-24T01:26:37.976Z,1.30
2022-11-24T01:29:05.330Z,1.52
2022-11-24T01:31:33.208Z,1.55
2022-11-24T01:34:00.496Z,1.65
2022-11-24T01:36:27.525Z,1.30
2022-11-24T01:38:54.674Z,1.50
2022-11-24T01:41:24.228Z,1.60
2022-11-24T01:43:53.141Z,1.15
2022-11-24T01:46:23.378Z,1.55
2022-11-24T01:49:08.913Z,1.30
2022-11-24T01:51:39.427Z,1.67
2022-11-24T01:54:15.210Z,1.40
2022-11-24T01:56:46.793Z,1.60
2022-11-24T01:59:20.448Z,1.95
2022-11-24T02:01:51.391Z,1.23
2022-11-24T02:04:24.168Z,1.70
2022-11-24T02:06:54.231Z,1.27
2022-11-24T02:09:32.403Z,1.85
2022-11-24T02:12:01.028Z,1.40
2022-11-24T02:14:28.557Z,1.02
2022-11-24T02:16:55.748Z,1.50
2022-11-24T02:19:41.254Z,1.65
2022-11-24T02:22:18.602Z,1.33
2022-11-24T02:25:03.525Z,1.50
2022-11-24T02:27:33.052Z,1.55
2022-11-24T02:30:00.224Z,1.60
2022-11-24T02:32:28.370Z,1.50
2022-11-24T02:35:04.301Z,1.45
2022-11-24T02:37:31.508Z,1.40
2022-11-24T02:40:00.982Z,1.38
2022-11-24T02:42:36.013Z,1.48
2022-11-24T02:45:06.356Z,1.40
2022-11-24T02:47:33.459Z,1.25
2022-11-24T02:50:01.124Z,1.50
2022-11-24T02:52:28.833Z,1.30
2022-11-24T02:54:55.972Z,1.73
2022-11-24T02:57:23.431Z,1.20
2022-11-24T02:59:50.987Z,1.45
2022-11-24T03:02:18.205Z,1.23
2022-11-24T03:04:45.783Z,1.45
2022-11-24T03:07:12.938Z,1.70
2022-11-24T03:09:40.652Z,1.60
2022-11-24T03:12:08.032Z,1.35
2022-11-24T03:14:35.542Z,1.23
2022-11-24T03:17:04.117Z,1.17
2022-11-24T03:19:31.559Z,1.20
2022-11-24T03:21:59.521Z,1.58
2022-11-24T03:24:26.729Z,1.58
2022-11-24T03:26:54.229Z,1.85
2022-11-24T03:29:22.429Z,1.30
2022-11-24T03:31:52.187Z,1.50
2022-11-24T03:34:19.639Z,1.48
2022-11-24T03:36:48.269Z,1.73
2022-11-24T03:39:15.922Z,1.55
2022-11-24T03:41:43.063Z,1.52
2022-11-24T03:44:12.761Z,1.40
2022-11-24T03:46:39.863Z,1.83
2022-11-24T03:49:10.130Z,1.38
2022-11-24T03:51:37.304Z,1.67
2022-11-24T03:54:04.686Z,1.52
2022-11-24T03:56:31.804Z,1.60
2022-11-24T03:58:59.089Z,1.63
2022-11-24T04:01:26.571Z,1.75
2022-11-24T04:03:53.781Z,1.50
2022-11-24T04:06:23.714Z,1.60
2022-11-24T04:08:50.845Z,1.85
2022-11-24T04:11:44.485Z,1.75
2022-11-24T04:14:13.773Z,1.60
2022-11-24T04:16:41.659Z,1.90
2022-11-24T04:19:09.076Z,1.70
2022-11-24T04:21:36.483Z,1.65
2022-11-24T04:24:05.871Z,1.75
2022-11-24T04:26:33.288Z,1.50
2022-11-24T04:29:02.904Z,1.70
2022-11-24T04:31:30.071Z,1.40
2022-11-24T04:33:57.275Z,1.90
2022-11-24T04:36:26.771Z,1.67
2022-11-24T04:39:23.501Z,1.80
2022-11-24T04:41:47.326Z,1.80
2022-11-24T04:44:14.449Z,1.77
2022-11-24T04:46:41.626Z,1.88
2022-11-24T04:49:11.692Z,2.17
2022-11-24T04:51:39.844Z,1.90
2022-11-24T04:54:09.655Z,1.63
2022-11-24T04:56:37.482Z,1.73
2022-11-24T04:59:08.424Z,2.33
2022-11-24T05:01:35.976Z,2.13
2022-11-24T05:04:03.579Z,1.83
2022-11-24T05:06:30.879Z,1.70
2022-11-24T05:08:58.270Z,2.15
2022-11-24T05:11:25.578Z,1.60
2022-11-24T05:13:54.100Z,2.00
2022-11-24T05:16:21.277Z,1.77
2022-11-24T05:18:50.068Z,1.80
2022-11-24T05:21:19.664Z,2.00
2022-11-24T05:23:46.924Z,1.92
2022-11-24T05:26:14.459Z,2.10
2022-11-24T05:28:41.736Z,1.70
2022-11-24T05:31:09.213Z,2.38
2022-11-24T05:33:37.362Z,1.80
2022-11-24T05:36:07.480Z,2.35
2022-11-24T05:38:35.658Z,1.85
2022-11-24T05:41:05.147Z,1.73
2022-11-24T05:43:32.679Z,1.90
2022-11-24T05:46:01.367Z,1.83
2022-11-24T05:48:29.225Z,1.90
2022-11-24T05:50:58.258Z,1.95
2022-11-24T05:53:27.127Z,1.98
2022-11-24T05:55:54.404Z,1.67
2022-11-24T05:58:21.940Z,1.88
2022-11-24T06:00:49.235Z,1.92
2022-11-24T06:03:16.879Z,1.75
2022-11-24T06:05:48.452Z,1.67
2022-11-24T06:08:18.147Z,1.92
2022-11-24T06:10:45.362Z,1.90
2022-11-24T06:13:12.487Z,1.85
2022-11-24T06:15:40.871Z,2.08
2022-11-24T06:18:07.984Z,1.98
2022-11-24T06:20:37.876Z,1.95
2022-11-24T06:23:05.400Z,1.90
2022-11-24T06:25:34.180Z,1.70
2022-11-24T06:28:03.953Z,1.65
2022-11-24T06:30:31.209Z,1.88
2022-11-24T06:32:58.474Z,1.83
2022-11-24T06:35:28.278Z,1.83
2022-11-24T06:37:55.508Z,2.10
2022-11-24T06:40:23.022Z,1.90
2022-11-24T06:42:51.692Z,1.88
2022-11-24T06:45:18.985Z,2.60
2022-11-24T06:47:46.224Z,2.80
2022-11-24T06:50:13.707Z,2.40
2022-11-24T06:52:40.845Z,3.05
2022-11-24T06:55:08.619Z,2.67
2022-11-24T06:57:38.181Z,2.45
2022-11-24T07:00:08.293Z,2.78
2022-11-24T07:02:42.534Z,2.55
2022-11-24T07:05:12.808Z,3.10
2022-11-24T07:07:40.076Z,2.88
2022-11-24T07:10:09.732Z,3.08
2022-11-24T07:12:36.965Z,2.88
2022-11-24T07:15:04.568Z,2.85
2022-11-24T07:17:31.891Z,3.20
2022-11-24T07:20:01.596Z,3.42
2022-11-24T07:22:28.751Z,3.38
2022-11-24T07:24:58.225Z,3.05
2022-11-24T07:27:27.620Z,3.55
2022-11-24T07:29:57.713Z,3.00
2022-11-24T07:32:24.890Z,3.13
2022-11-24T07:34:54.698Z,4.00
2022-11-24T07:37:24.517Z,3.38
2022-11-24T07:39:55.597Z,3.47
2022-11-24T07:42:22.894Z,3.47
2022-11-24T07:44:50.169Z,3.40
2022-11-24T07:47:19.590Z,3.47
2022-11-24T07:49:47.529Z,3.70
2022-11-24T07:52:14.842Z,4.28
2022-11-24T07:54:42.087Z,3.58
2022-11-24T07:57:09.238Z,3.70
2022-11-24T07:59:36.460Z,4.07
2022-11-24T08:02:04.130Z,3.67
2022-11-24T08:04:31.588Z,3.53
2022-11-24T08:06:59.195Z,4.65
2022-11-24T08:09:26.363Z,4.00
2022-11-24T08:11:53.652Z,3.75
2022-11-24T08:14:20.844Z,4.07
2022-11-24T08:16:49.838Z,3.80
2022-11-24T08:19:17.222Z,3.92
2022-11-24T08:21:44.439Z,3.85
2022-11-24T08:24:15.372Z,3.83
2022-11-24T08:26:43.092Z,3.30
2022-11-24T08:29:10.515Z,3.60
2022-11-24T08:31:39.528Z,3.92
2022-11-24T08:34:06.966Z,3.90
2022-11-24T08:36:34.530Z,3.78
2022-11-24T08:39:02.557Z,3.42
2022-11-24T08:41:30.598Z,3.72
2022-11-24T08:43:58.279Z,3.50
2022-11-24T08:46:25.525Z,3.75
2022-11-24T08:48:54.420Z,3.53
2022-11-24T08:51:24.210Z,3.38
2022-11-24T08:53:55.832Z,3.63
2022-11-24T08:56:25.342Z,3.28
2022-11-24T08:58:53.580Z,3.40
2022-11-24T09:01:21.337Z,3.60
2022-11-24T09:03:51.793Z,3.33
2022-11-24T09:06:24.741Z,3.53
2022-11-24T09:08:54.696Z,3.25
2022-11-24T09:11:22.266Z,3.58
2022-11-24T09:13:50.447Z,3.40
2022-11-24T09:16:20.414Z,3.45
2022-11-24T09:18:59.532Z,3.40
2022-11-24T09:21:27.601Z,3.60
2022-11-24T09:23:55.094Z,3.65
2022-11-24T09:26:26.342Z,3.60
2022-11-24T09:28:58.116Z,3.58
2022-11-24T09:31:27.744Z,3.28
2022-11-24T09:33:55.753Z,3.00
2022-11-24T09:36:24.237Z,3.35
2022-11-24T09:38:54.104Z,3.05
2022-11-24T09:41:24.501Z,3.13
2022-11-24T09:44:07.820Z,2.88
2022-11-24T09:46:57.159Z,3.75
2022-11-24T09:49:55.652Z,2.92
2022-11-24T09:52:45.041Z,3.10
2022-11-24T09:55:31.527Z,3.03
2022-11-24T09:58:26.288Z,2.95
2022-11-24T10:01:04.470Z,2.90
2022-11-24T10:03:45.022Z,2.58
2022-11-24T10:07:07.246Z,2.83
2022-11-24T10:10:12.488Z,3.08
2022-11-24T10:13:25.402Z,3.08
2022-11-24T10:16:01.592Z,2.78
2022-11-24T10:18:56.708Z,2.90
2022-11-24T10:21:34.806Z,2.80
2022-11-24T10:24:18.737Z,2.80
2022-11-24T10:27:13.753Z,2.75
2022-11-24T10:29:42.379Z,2.67
2022-11-24T10:32:19.192Z,2.20
2022-11-24T10:34:51.491Z,2.75
2022-11-24T10:37:21.606Z,2.13
2022-11-24T10:40:33.355Z,2.30
2022-11-24T10:43:05.471Z,2.22
2022-11-24T10:45:32.734Z,1.90
2022-11-24T10:48:03.168Z,1.83
2022-11-24T10:50:38.065Z,1.85
2022-11-24T10:53:16.109Z,1.80
2022-11-24T10:55:55.979Z,1.83
2022-11-24T10:58:37.614Z,1.90
2022-11-24T11:01:14.692Z,1.83
2022-11-24T11:03:48.109Z,1.80
2022-11-24T11:06:22.486Z,2.30
2022-11-24T11:08:49.665Z,2.60
2022-11-24T11:11:16.821Z,2.70
2022-11-24T11:13:58.156Z,2.60
2022-11-24T11:16:32.161Z,2.22
2022-11-24T11:19:01.554Z,2.55
2022-11-24T11:21:35.284Z,2.08
2022-11-24T11:24:12.670Z,2.25
2022-11-24T11:26:41.579Z,2.10
2022-11-24T11:35:04.734Z,2.55
2022-11-24T11:37:33.562Z,2.63
2022-11-24T11:40:03.574Z,2.13
2022-11-24T11:43:01.253Z,2.22
2022-11-24T11:45:34.918Z,2.30
2022-11-24T11:48:02.783Z,3.53
2022-11-24T11:51:21.227Z,3.95
2022-11-24T11:53:56.479Z,4.72
2022-11-24T11:56:40.583Z,5.45
2022-11-24T11:59:29.859Z,3.97
2022-11-24T12:02:18.691Z,3.80
2022-11-24T12:05:02.196Z,3.25
2022-11-24T12:07:41.895Z,3.75
2022-11-24T12:10:41.435Z,3.10
2022-11-24T12:13:17.705Z,3.03
2022-11-24T12:15:55.117Z,2.72
2022-11-24T12:21:49.654Z,2.83
2022-11-24T12:24:28.365Z,2.58
2022-11-24T12:27:10.274Z,2.58
2022-11-24T12:30:08.174Z,2.80
2022-11-24T12:32:47.316Z,3.25
2022-11-24T12:35:30.395Z,3.00
2022-11-24T12:38:03.330Z,2.55
2022-11-24T12:40:30.413Z,2.58
2022-11-24T12:43:23.311Z,2.60
2022-11-24T12:46:18.081Z,2.50
2022-11-24T12:49:06.940Z,2.33
2022-11-24T12:51:42.793Z,3.10
2022-11-24T12:54:17.859Z,2.42
2022-11-24T12:56:59.972Z,2.80
2022-11-24T12:59:51.960Z,2.30
2022-11-24T13:02:34.688Z,2.28
2022-11-24T13:05:26.981Z,2.42
2022-11-24T13:07:57.905Z,2.58
2022-11-24T13:10:53.663Z,2.90
2022-11-24T13:13:14.642Z,2.38
2022-11-24T13:19:12.980Z,2.67
2022-11-24T13:21:45.827Z,2.78
2022-11-24T13:24:19.975Z,2.60
2022-11-24T13:26:49.018Z,2.60
2022-11-24T13:29:31.367Z,3.03
2022-11-24T13:32:22.176Z,2.45
2022-11-24T13:34:55.309Z,2.70
2022-11-24T13:40:31.393Z,2.78
2022-11-24T13:43:01.201Z,2.40
2022-11-24T13:45:42.803Z,2.75
2022-11-24T13:48:22.321Z,2.33
2022-11-24T13:50:50.134Z,2.80
2022-11-24T13:53:49.810Z,2.50
2022-11-24T13:56:17.136Z,3.05
2022-11-24T13:58:59.842Z,2.38
2022-11-24T14:01:34.683Z,2.57
2022-11-24T14:06:51.885Z,2.58
2022-11-24T14:09:27.902Z,2.40
2022-11-24T14:12:16.458Z,2.75
2022-11-24T14:14:45.897Z,2.55
2022-11-24T14:17:13.017Z,2.25
2022-11-24T14:19:44.709Z,2.58
2022-11-24T14:22:17.984Z,2.50
2022-11-24T14:27:16.411Z,2.30
2022-11-24T14:29:57.449Z,2.35
2022-11-24T14:32:24.926Z,2.30
2022-11-24T14:34:54.433Z,2.67
2022-11-24T14:37:21.849Z,2.35
2022-11-24T14:39:49.159Z,2.35
2022-11-24T14:42:23.514Z,2.20
2022-11-24T14:45:05.070Z,2.45
2022-11-24T14:47:41.477Z,2.38
2022-11-24T14:50:16.522Z,2.35
2022-11-24T14:52:54.277Z,2.15
2022-11-24T14:55:32.427Z,2.35
2022-11-24T14:58:00.238Z,1.90
2022-11-24T15:00:32.886Z,2.13
2022-11-24T15:03:19.800Z,1.95
2022-11-24T15:05:53.725Z,2.70
2022-11-24T15:08:22.463Z,2.38
2022-11-24T15:10:57.566Z,2.20
2022-11-24T15:13:29.178Z,2.35
2022-11-24T15:16:02.835Z,2.10
2022-11-24T15:18:35.967Z,2.75
2022-11-24T15:21:03.515Z,1.90
2022-11-24T15:23:35.329Z,2.28
2022-11-24T15:26:02.507Z,2.08
2022-11-24T15:28:33.416Z,2.85
2022-11-24T15:31:03.352Z,2.00
2022-11-24T15:33:36.168Z,1.90
2022-11-24T15:36:03.991Z,2.72
2022-11-24T15:38:33.788Z,2.33
2022-11-24T15:41:01.863Z,2.38
2022-11-24T15:43:39.003Z,2.47
2022-11-24T15:46:07.979Z,2.50
2022-11-24T15:48:37.580Z,2.22
2022-11-24T15:51:10.205Z,2.45
2022-11-24T15:53:47.038Z,1.75
2022-11-24T15:56:20.703Z,2.33
2022-11-24T15:58:48.583Z,1.90
2022-11-24T16:01:15.883Z,2.47
2022-11-24T16:03:48.386Z,2.00
2022-11-24T16:06:25.083Z,2.50
2022-11-24T16:08:56.425Z,2.08
2022-11-24T16:11:23.668Z,2.00
2022-11-24T16:13:54.619Z,2.20
2022-11-24T16:16:23.322Z,2.10
2022-11-24T16:18:53.117Z,2.30
2022-11-24T16:21:20.280Z,1.95
2022-11-24T16:23:48.678Z,2.45
2022-11-24T16:26:19.861Z,1.98
2022-11-24T16:28:47.462Z,1.80
2022-11-24T16:31:16.572Z,2.17
2022-11-24T16:33:48.345Z,1.67
2022-11-24T16:36:18.288Z,2.05
2022-11-24T16:38:45.705Z,1.88
2022-11-24T16:41:14.211Z,2.53
2022-11-24T16:43:42.185Z,1.90
2022-11-24T16:46:09.443Z,2.47
2022-11-24T16:48:37.161Z,1.83
2022-11-24T16:51:10.033Z,2.22
2022-11-24T16:53:38.343Z,2.00
2022-11-24T16:56:06.011Z,1.95
2022-11-24T16:58:36.405Z,1.80
2022-11-24T17:01:04.843Z,2.28
2022-11-24T17:03:33.587Z,1.92
2022-11-24T17:06:01.326Z,2.13
2022-11-24T17:08:32.131Z,1.85
2022-11-24T17:11:18.309Z,2.20
2022-11-24T17:13:49.354Z,2.13
2022-11-24T17:16:19.421Z,2.00
2022-11-24T17:18:47.586Z,2.25
2022-11-24T17:21:17.452Z,1.90
2022-11-24T17:23:47.461Z,1.80
2022-11-24T17:26:17.511Z,2.05
2022-11-24T17:28:45.077Z,1.90
2022-11-24T17:31:20.109Z,1.90
2022-11-24T17:33:50.903Z,2.13
2022-11-24T17:36:18.086Z,2.13
2022-11-24T17:38:49.565Z,2.38
2022-11-24T17:41:20.082Z,2.55
2022-11-24T17:43:55.848Z,2.13
2022-11-24T17:46:24.506Z,2.20
2022-11-24T17:48:52.149Z,2.55
2022-11-24T17:51:21.340Z,2.40
2022-11-24T17:53:55.234Z,2.83
2022-11-24T17:56:40.653Z,3.77
2022-11-24T17:59:24.361Z,3.20
2022-11-24T18:08:37.234Z,3.17
2022-11-24T18:11:20.007Z,3.22
2022-11-24T18:14:01.186Z,3.20
2022-11-24T18:16:47.193Z,3.88
2022-11-24T18:19:17.612Z,3.10
2022-11-24T18:22:14.028Z,3.42
2022-11-24T18:24:44.345Z,3.78
2022-11-24T18:27:12.603Z,3.83
2022-11-24T18:29:43.040Z,3.88
2022-11-24T18:32:10.392Z,3.45
2022-11-24T18:34:37.816Z,3.33
2022-11-24T18:37:05.033Z,3.70
2022-11-24T18:39:34.592Z,3.35
2022-11-24T18:42:01.801Z,4.40
2022-11-24T18:44:28.936Z,3.40
2022-11-24T18:46:56.495Z,3.50
2022-11-24T18:49:25.916Z,3.38
2022-11-24T18:51:53.112Z,3.92
2022-11-24T18:54:20.266Z,3.78
2022-11-24T18:56:47.380Z,4.00
2022-11-24T18:59:14.536Z,3.30
2022-11-24T19:01:41.847Z,3.75
2022-11-24T19:04:09.781Z,3.83
2022-11-24T19:06:37.980Z,3.45
2022-11-24T19:09:18.646Z,3.90
2022-11-24T19:11:46.920Z,3.55
2022-11-24T19:14:18.659Z,4.13
2022-11-24T19:16:50.805Z,4.20
2022-11-24T19:19:18.261Z,3.90
2022-11-24T19:21:46.495Z,3.90
2022-11-24T19:24:13.770Z,4.00
2022-11-24T19:26:43.563Z,3.65
2022-11-24T19:29:13.192Z,4.18
2022-11-24T19:31:40.500Z,4.68
2022-11-24T19:34:08.520Z,4.18
2022-11-24T19:36:36.287Z,4.20
2022-11-24T19:39:05.181Z,4.43
2022-11-24T19:41:33.494Z,4.53
2022-11-24T19:44:00.937Z,4.40
2022-11-24T19:46:29.632Z,4.75
2022-11-24T19:49:01.723Z,4.78
2022-11-24T19:51:32.033Z,4.72
2022-11-24T19:54:00.072Z,5.28
2022-11-24T19:56:32.142Z,4.53
2022-11-24T19:58:59.702Z,4.30
2022-11-24T20:01:30.076Z,4.78
2022-11-24T20:04:12.430Z,4.35
2022-11-24T20:06:46.314Z,4.75
2022-11-24T20:09:16.922Z,4.50
2022-11-24T20:11:45.029Z,4.80
2022-11-24T20:14:14.134Z,4.80
2022-11-24T20:16:41.536Z,5.10
2022-11-24T20:19:12.124Z,4.40
2022-11-24T20:21:40.396Z,4.70
2022-11-24T20:24:19.566Z,4.60
2022-11-24T20:26:50.008Z,5.45
2022-11-24T20:29:18.257Z,6.15
2022-11-24T20:31:47.986Z,5.15
2022-11-24T20:34:16.233Z,5.82
2022-11-24T20:36:45.706Z,6.28
2022-11-24T20:39:19.857Z,5.70
2022-11-24T20:41:47.429Z,5.90
2022-11-24T20:44:16.665Z,5.72
2022-11-24T20:46:45.325Z,5.43
2022-11-24T20:49:15.661Z,5.43
2022-11-24T20:51:48.281Z,6.00
2022-11-24T20:54:17.615Z,5.10
2022-11-24T20:56:46.739Z,6.07
2022-11-24T20:59:23.106Z,4.95
2022-11-24T21:01:51.432Z,5.35
2022-11-24T21:04:22.567Z,5.10
2022-11-24T21:06:50.241Z,5.47
2022-11-24T21:09:18.280Z,4.90
2022-11-24T21:11:46.158Z,5.07
2022-11-24T21:14:13.407Z,4.85
2022-11-24T21:16:42.104Z,5.15
2022-11-24T21:19:18.703Z,4.55
2022-11-24T21:21:47.621Z,5.40
2022-11-24T21:24:17.493Z,4.43
2022-11-24T21:26:48.190Z,4.63
2022-11-24T21:29:18.868Z,4.72
2022-11-24T21:31:46.457Z,5.03
2022-11-24T21:34:16.925Z,4.65
2022-11-24T21:36:45.155Z,4.30
2022-11-24T21:39:16.488Z,4.35
2022-11-24T21:41:44.067Z,4.60
2022-11-24T21:44:13.093Z,4.50
2022-11-24T21:46:48.296Z,4.97
2022-11-24T21:49:20.031Z,4.72
2022-11-24T21:51:47.474Z,4.03
2022-11-24T21:54:14.623Z,4.85
2022-11-24T21:56:41.790Z,3.88
2022-11-24T21:59:13.961Z,4.80
2022-11-24T22:01:41.239Z,4.65
2022-11-24T22:04:09.542Z,4.93
2022-11-24T22:06:37.044Z,4.25
2022-11-24T22:09:06.523Z,4.53
2022-11-24T22:11:33.807Z,4.00
2022-11-24T22:14:01.287Z,4.25
2022-11-24T22:16:28.573Z,4.20
2022-11-24T22:18:56.146Z,5.03
2022-11-24T22:21:25.764Z,4.32
2022-11-24T22:23:53.314Z,4.30
2022-11-24T22:26:22.379Z,3.90
2022-11-24T22:28:50.200Z,3.85
2022-11-24T22:31:19.809Z,4.25
2022-11-24T22:33:47.894Z,3.92
2022-11-24T22:36:17.033Z,4.05
2022-11-24T22:38:46.907Z,4.10
2022-11-24T22:41:16.817Z,4.47
2022-11-24T22:43:45.496Z,4.07
2022-11-24T22:46:15.135Z,4.13
2022-11-24T22:48:43.061Z,3.90
2022-11-24T22:51:15.389Z,4.25
2022-11-24T22:53:51.243Z,3.67
2022-11-24T22:56:19.915Z,3.65
2022-11-24T22:58:48.248Z,3.80
2022-11-24T23:01:23.966Z,3.65
2022-11-24T23:03:54.733Z,3.72
2022-11-24T23:06:24.699Z,3.60
2022-11-24T23:08:54.880Z,3.67
2022-11-24T23:11:31.595Z,3.88
2022-11-24T23:14:02.638Z,4.15
2022-11-24T23:16:32.717Z,4.00
2022-11-24T23:19:00.004Z,3.20
2022-11-24T23:21:31.838Z,3.75
2022-11-24T23:24:00.653Z,3.22
2022-11-24T23:26:33.632Z,3.60
2022-11-24T23:29:01.209Z,3.28
2022-11-24T23:31:31.846Z,3.30
2022-11-24T23:34:03.214Z,3.35
2022-11-24T23:36:31.182Z,3.50
2022-11-24T23:39:06.839Z,3.65
2022-11-24T23:41:35.040Z,3.47
2022-11-24T23:44:02.222Z,3.70
2022-11-24T23:46:29.384Z,3.28
2022-11-24T23:48:56.937Z,3.70
2022-11-24T23:51:32.071Z,4.32
2022-11-24T23:54:00.297Z,3.17
2022-11-24T23:56:33.126Z,3.83
2022-11-24T23:59:04.593Z,3.15
